createdAt,value
2023-04-14T00:00:03.774Z,96841.56
2023-04-14T00:02:40.102Z,96838.25
2023-04-14T00:05:08.861Z,96842.78
2023-04-14T00:07:36.289Z,96840.22
2023-04-14T00:10:04.017Z,96844.25
2023-04-14T00:12:31.369Z,96850.03
2023-04-14T00:15:00.262Z,96847.91
2023-04-14T00:17:27.714Z,96844.38
2023-04-14T00:19:55.131Z,96854.56
2023-04-14T00:22:22.589Z,96853.31
2023-04-14T00:24:50.866Z,96855.56
2023-04-14T00:27:18.382Z,96859.28
2023-04-14T00:29:45.839Z,96856.97
2023-04-14T00:32:14.556Z,96865.63
2023-04-14T00:34:41.917Z,96867.28
2023-04-14T00:37:10.028Z,96873.59
2023-04-14T00:39:37.421Z,96860.34
2023-04-14T00:42:05.023Z,96870.00
2023-04-14T00:44:32.366Z,96869.81
2023-04-14T00:47:01.116Z,96868.41
2023-04-14T00:49:29.965Z,96859.34
2023-04-14T00:51:57.874Z,96866.81
2023-04-14T00:54:27.917Z,96873.47
2023-04-14T00:56:57.918Z,96880.97
2023-04-14T00:59:25.756Z,96878.09
2023-04-14T01:01:53.984Z,96882.25
2023-04-14T01:04:22.664Z,96879.81
2023-04-14T01:06:51.426Z,96885.03
2023-04-14T01:09:18.792Z,96880.00
2023-04-14T01:11:52.750Z,96886.03
2023-04-14T01:14:32.432Z,96877.78
2023-04-14T01:17:04.019Z,96880.09
2023-04-14T01:19:47.017Z,96889.41
2023-04-14T01:22:18.560Z,96890.06
2023-04-14T01:25:06.944Z,96897.56
2023-04-14T01:27:43.724Z,96889.22
2023-04-14T01:30:35.446Z,96899.72
2023-04-14T01:33:08.049Z,96891.47
2023-04-14T01:35:42.345Z,96894.59
2023-04-14T01:38:16.766Z,96896.72
2023-04-14T01:40:51.240Z,96898.56
2023-04-14T01:43:25.719Z,96895.31
2023-04-14T01:45:56.651Z,96905.22
2023-04-14T01:48:27.060Z,96903.38
2023-04-14T01:50:55.958Z,96908.38
2023-04-14T01:53:25.843Z,96908.75
2023-04-14T01:55:55.255Z,96899.66
2023-04-14T01:58:23.648Z,96903.38
2023-04-14T02:00:52.891Z,96896.53
2023-04-14T02:03:22.057Z,96894.28
2023-04-14T02:05:52.562Z,96895.13
2023-04-14T02:08:23.117Z,96894.53
2023-04-14T02:10:53.623Z,96899.09
2023-04-14T02:13:24.040Z,96901.59
2023-04-14T02:15:53.303Z,96899.56
2023-04-14T02:18:22.931Z,96899.34
2023-04-14T02:20:54.442Z,96895.38
2023-04-14T02:23:21.875Z,96898.25
2023-04-14T02:25:54.155Z,96892.69
2023-04-14T02:28:25.476Z,96886.47
2023-04-14T02:30:56.202Z,96888.16
2023-04-14T02:33:28.446Z,96887.97
2023-04-14T02:36:09.827Z,96890.84
2023-04-14T02:38:39.468Z,96889.63
2023-04-14T02:41:09.189Z,96888.59
2023-04-14T02:43:43.231Z,96894.78
2023-04-14T02:46:16.355Z,96895.19
2023-04-14T02:48:46.631Z,96900.16
2023-04-14T02:51:18.045Z,96899.09
2023-04-14T02:53:46.474Z,96894.75
2023-04-14T02:56:43.878Z,96894.28
2023-04-14T02:59:12.419Z,96901.16
2023-04-14T03:01:51.797Z,96901.72
2023-04-14T03:04:22.259Z,96899.22
2023-04-14T03:06:52.429Z,96901.50
2023-04-14T03:09:22.030Z,96899.41
2023-04-14T03:11:51.204Z,96898.97
2023-04-14T03:14:19.843Z,96895.81
2023-04-14T03:16:48.990Z,96900.56
2023-04-14T03:19:17.774Z,96896.84
2023-04-14T03:21:46.962Z,96895.00
2023-04-14T03:24:20.674Z,96901.00
2023-04-14T03:26:51.457Z,96892.31
2023-04-14T03:29:21.572Z,96893.53
2023-04-14T03:31:50.335Z,96898.44
2023-04-14T03:34:19.567Z,96889.75
2023-04-14T03:36:54.637Z,96888.06
2023-04-14T03:39:27.304Z,96885.38
2023-04-14T03:41:57.172Z,96879.19
2023-04-14T03:44:27.441Z,96878.09
2023-04-14T03:46:55.164Z,96873.09
2023-04-14T03:49:25.594Z,96869.59
2023-04-14T03:51:57.318Z,96872.66
2023-04-14T03:54:30.417Z,96871.19
2023-04-14T03:56:59.405Z,96873.69
2023-04-14T03:59:29.660Z,96875.06
2023-04-14T04:01:59.153Z,96867.41
2023-04-14T04:04:27.407Z,96871.41
2023-04-14T04:06:55.143Z,96873.16
2023-04-14T04:09:24.650Z,96868.09
2023-04-14T04:11:57.090Z,96862.22
2023-04-14T04:14:27.021Z,96867.50
2023-04-14T04:16:56.222Z,96863.69
2023-04-14T04:19:25.346Z,96869.91
2023-04-14T04:21:56.446Z,96878.34
2023-04-14T04:24:27.142Z,96878.91
2023-04-14T04:26:56.520Z,96884.81
2023-04-14T04:29:24.705Z,96891.75
2023-04-14T04:31:54.534Z,96901.56
2023-04-14T04:34:25.499Z,96897.56
2023-04-14T04:36:54.377Z,96908.41
2023-04-14T04:39:22.163Z,96900.06
2023-04-14T04:41:51.874Z,96904.78
2023-04-14T04:44:21.089Z,96905.22
2023-04-14T04:46:53.555Z,96906.44
2023-04-14T04:49:24.925Z,96918.16
2023-04-14T04:51:54.350Z,96921.50
2023-04-14T04:54:22.051Z,96919.47
2023-04-14T04:56:49.987Z,96924.09
2023-04-14T04:59:17.478Z,96935.00
2023-04-14T05:01:46.545Z,96941.75
2023-04-14T05:04:13.907Z,96941.91
2023-04-14T05:06:41.436Z,96939.16
2023-04-14T05:09:09.041Z,96942.56
2023-04-14T05:11:36.614Z,96947.06
2023-04-14T05:14:04.215Z,96938.66
2023-04-14T05:16:32.087Z,96957.09
2023-04-14T05:19:01.244Z,96947.00
2023-04-14T05:21:28.884Z,96955.53
2023-04-14T05:23:56.359Z,96963.56
2023-04-14T05:26:38.891Z,96958.84
2023-04-14T05:29:11.533Z,96952.84
2023-04-14T05:31:39.047Z,96967.84
2023-04-14T05:34:07.930Z,96965.44
2023-04-14T05:36:35.830Z,96965.91
2023-04-14T05:39:03.506Z,96972.75
2023-04-14T05:41:31.021Z,96976.75
2023-04-14T05:43:58.572Z,96983.78
2023-04-14T05:46:26.302Z,96979.97
2023-04-14T05:48:53.759Z,96990.16
2023-04-14T05:51:22.524Z,96985.00
2023-04-14T05:53:49.999Z,96987.19
2023-04-14T05:56:17.416Z,96995.50
2023-04-14T05:58:44.868Z,96997.34
2023-04-14T06:01:12.323Z,96985.00
2023-04-14T06:03:40.849Z,96990.94
2023-04-14T06:06:08.831Z,96996.75
2023-04-14T06:08:37.677Z,96987.97
2023-04-14T06:11:05.674Z,96997.97
2023-04-14T06:13:35.592Z,96997.25
2023-04-14T06:16:05.530Z,96986.25
2023-04-14T06:18:33.105Z,96995.50
2023-04-14T06:21:01.616Z,96996.06
2023-04-14T06:23:29.102Z,96999.84
2023-04-14T06:25:58.305Z,97001.41
2023-04-14T06:28:26.315Z,96991.03
2023-04-14T06:30:54.005Z,96992.41
2023-04-14T06:33:21.547Z,96987.94
2023-04-14T06:35:48.998Z,96985.31
2023-04-14T06:38:16.697Z,96978.84
2023-04-14T06:40:44.193Z,96980.06
2023-04-14T06:43:14.153Z,96984.25
2023-04-14T06:45:41.616Z,96978.34
2023-04-14T06:48:09.208Z,96966.34
2023-04-14T06:50:36.652Z,96956.78
2023-04-14T06:53:06.060Z,96964.59
2023-04-14T06:55:35.584Z,96957.72
2023-04-14T06:58:02.962Z,96947.66
2023-04-14T07:00:31.889Z,96948.53
2023-04-14T07:02:59.249Z,96945.69
2023-04-14T07:05:27.127Z,96946.84
2023-04-14T07:07:54.580Z,96941.19
2023-04-14T07:10:21.936Z,96938.06
2023-04-14T07:12:49.341Z,96936.81
2023-04-14T07:15:16.961Z,96938.50
2023-04-14T07:17:45.804Z,96935.41
2023-04-14T07:20:13.581Z,96941.66
2023-04-14T07:22:40.990Z,96934.81
2023-04-14T07:25:09.208Z,96931.50
2023-04-14T07:27:36.564Z,96934.59
2023-04-14T07:30:05.095Z,96941.88
2023-04-14T07:32:33.051Z,96943.13
2023-04-14T07:35:01.884Z,96939.56
2023-04-14T07:37:29.173Z,96947.03
2023-04-14T07:39:56.620Z,96945.56
2023-04-14T07:42:24.312Z,96945.72
2023-04-14T07:44:51.782Z,96946.25
2023-04-14T07:47:19.299Z,96942.34
2023-04-14T07:49:46.939Z,96942.53
2023-04-14T07:52:16.553Z,96945.91
2023-04-14T07:54:45.715Z,96944.00
2023-04-14T07:57:14.056Z,96942.16
2023-04-14T07:59:42.861Z,96934.19
2023-04-14T08:02:10.403Z,96940.56
2023-04-14T08:04:37.977Z,96945.34
2023-04-14T08:07:05.614Z,96941.19
2023-04-14T08:09:34.982Z,96942.66
2023-04-14T08:12:02.708Z,96942.66
2023-04-14T08:14:30.340Z,96943.28
2023-04-14T08:16:57.811Z,96935.53
2023-04-14T08:19:25.217Z,96937.09
2023-04-14T08:21:52.552Z,96933.66
2023-04-14T08:24:20.051Z,96934.44
2023-04-14T08:26:48.884Z,96936.00
2023-04-14T08:29:16.683Z,96930.59
2023-04-14T08:31:44.137Z,96935.31
2023-04-14T08:34:11.682Z,96924.59
2023-04-14T08:36:39.892Z,96921.84
2023-04-14T08:39:07.420Z,96916.88
2023-04-14T08:41:35.241Z,96923.94
2023-04-14T08:44:04.235Z,96916.13
2023-04-14T08:46:31.948Z,96925.06
2023-04-14T08:49:05.715Z,96922.28
2023-04-14T08:51:36.030Z,96927.03
2023-04-14T08:54:07.384Z,96922.31
2023-04-14T08:56:41.256Z,96913.16
2023-04-14T08:59:11.558Z,96915.53
2023-04-14T09:01:39.937Z,96919.41
2023-04-14T09:04:08.128Z,96911.94
2023-04-14T09:06:36.403Z,96917.94
2023-04-14T09:09:08.757Z,96911.97
2023-04-14T09:11:36.549Z,96911.00
2023-04-14T09:14:04.541Z,96910.31
2023-04-14T09:16:33.743Z,96908.06
2023-04-14T09:19:06.324Z,96904.97
2023-04-14T09:21:52.501Z,96902.25
2023-04-14T09:24:31.285Z,96896.84
2023-04-14T09:27:02.023Z,96895.28
2023-04-14T09:29:29.855Z,96896.75
2023-04-14T09:31:59.087Z,96904.34
2023-04-14T09:34:26.666Z,96903.63
2023-04-14T09:37:05.231Z,96902.47
2023-04-14T09:39:33.748Z,96895.16
2023-04-14T09:42:01.883Z,96891.00
2023-04-14T09:44:29.806Z,96894.13
2023-04-14T09:47:07.284Z,96881.94
2023-04-14T09:49:35.495Z,96882.78
2023-04-14T09:52:06.338Z,96884.63
2023-04-14T09:54:34.174Z,96888.81
2023-04-14T09:57:01.828Z,96894.06
2023-04-14T09:59:34.044Z,96882.69
2023-04-14T10:02:06.800Z,96893.16
2023-04-14T10:04:34.779Z,96878.13
2023-04-14T10:07:02.933Z,96879.69
2023-04-14T10:09:34.907Z,96876.13
2023-04-14T10:12:10.469Z,96866.97
2023-04-14T10:14:38.916Z,96876.94
2023-04-14T10:17:08.587Z,96861.75
2023-04-14T10:19:37.650Z,96855.22
2023-04-14T10:22:06.070Z,96848.81
2023-04-14T10:24:34.825Z,96846.56
2023-04-14T10:27:03.687Z,96847.06
2023-04-14T10:29:31.355Z,96847.88
2023-04-14T10:32:05.293Z,96841.41
2023-04-14T10:34:35.438Z,96843.41
2023-04-14T10:37:13.084Z,96835.34
2023-04-14T10:39:41.145Z,96833.38
2023-04-14T10:42:09.239Z,96831.06
2023-04-14T10:44:36.829Z,96835.44
2023-04-14T10:47:07.766Z,96829.19
2023-04-14T10:49:38.382Z,96814.72
2023-04-14T10:52:27.283Z,96818.75
2023-04-14T10:54:55.809Z,96817.53
2023-04-14T10:57:24.103Z,96815.34
2023-04-14T10:59:54.966Z,96814.72
2023-04-14T11:02:28.188Z,96818.13
2023-04-14T11:05:04.546Z,96812.84
2023-04-14T11:07:38.305Z,96806.09
2023-04-14T11:10:27.275Z,96805.00
2023-04-14T11:12:57.166Z,96800.94
2023-04-14T11:15:24.657Z,96795.69
2023-04-14T11:17:52.411Z,96802.22
2023-04-14T11:20:22.474Z,96804.19
2023-04-14T11:22:51.117Z,96794.06
2023-04-14T11:25:22.996Z,96792.97
2023-04-14T11:27:52.004Z,96789.28
2023-04-14T11:30:20.370Z,96787.66
2023-04-14T11:32:50.130Z,96792.88
2023-04-14T11:35:18.221Z,96786.00
2023-04-14T11:37:47.400Z,96788.03
2023-04-14T11:40:15.926Z,96781.72
2023-04-14T11:42:44.624Z,96779.63
2023-04-14T11:45:14.165Z,96772.28
2023-04-14T11:47:47.273Z,96760.44
2023-04-14T11:50:16.970Z,96755.31
2023-04-14T11:52:48.397Z,96761.94
2023-04-14T11:55:15.899Z,96760.94
2023-04-14T11:57:44.413Z,96755.63
2023-04-14T12:00:12.661Z,96744.31
2023-04-14T12:02:43.241Z,96739.19
2023-04-14T12:05:12.118Z,96741.31
2023-04-14T12:07:42.774Z,96737.03
2023-04-14T12:10:12.501Z,96730.44
2023-04-14T12:12:39.974Z,96737.38
2023-04-14T12:15:09.400Z,96735.50
2023-04-14T12:17:37.313Z,96719.41
2023-04-14T12:20:05.593Z,96723.75
2023-04-14T12:22:33.089Z,96727.47
2023-04-14T12:25:10.857Z,96720.28
2023-04-14T12:27:39.833Z,96718.47
2023-04-14T12:30:09.446Z,96710.22
2023-04-14T12:32:44.113Z,96704.28
2023-04-14T12:35:11.637Z,96706.31
2023-04-14T12:37:41.304Z,96715.56
2023-04-14T12:40:10.803Z,96705.66
2023-04-14T12:42:47.371Z,96697.84
2023-04-14T12:45:16.222Z,96702.19
2023-04-14T12:47:52.959Z,96690.06
2023-04-14T12:50:26.618Z,96685.31
2023-04-14T12:52:54.816Z,96683.47
2023-04-14T12:55:23.830Z,96689.88
2023-04-14T12:57:53.731Z,96687.63
2023-04-14T13:00:21.871Z,96676.75
2023-04-14T13:02:49.546Z,96674.78
2023-04-14T13:05:17.610Z,96665.63
2023-04-14T13:07:46.529Z,96665.47
2023-04-14T13:10:14.502Z,96667.34
2023-04-14T13:12:42.020Z,96662.56
2023-04-14T13:16:10.333Z,96655.44
2023-04-14T13:17:59.321Z,96648.97
2023-04-14T13:20:26.803Z,96648.97
2023-04-14T13:22:54.508Z,96645.91
2023-04-14T13:25:21.945Z,96640.94
2023-04-14T13:27:49.588Z,96634.03
2023-04-14T13:30:18.486Z,96625.56
2023-04-14T13:32:46.078Z,96625.03
2023-04-14T13:35:13.556Z,96623.06
2023-04-14T13:37:41.301Z,96614.66
2023-04-14T13:40:09.522Z,96616.09
2023-04-14T13:42:36.994Z,96614.16
2023-04-14T13:45:05.491Z,96615.91
2023-04-14T13:47:34.365Z,96612.03
2023-04-14T13:50:02.304Z,96607.88
2023-04-14T13:52:29.785Z,96604.97
2023-04-14T13:54:57.186Z,96604.53
2023-04-14T13:57:24.667Z,96607.69
2023-04-14T13:59:52.093Z,96603.97
2023-04-14T14:02:19.564Z,96609.59
2023-04-14T14:04:48.750Z,96600.38
2023-04-14T14:07:16.497Z,96605.84
2023-04-14T14:09:45.755Z,96596.03
2023-04-14T14:12:16.994Z,96595.91
2023-04-14T14:14:44.418Z,96602.09
2023-04-14T14:17:12.171Z,96607.03
2023-04-14T14:19:39.964Z,96595.56
2023-04-14T14:22:08.884Z,96600.69
2023-04-14T14:24:36.438Z,96607.22
2023-04-14T14:27:04.152Z,96608.78
2023-04-14T14:29:31.919Z,96606.38
2023-04-14T14:31:59.355Z,96609.34
2023-04-14T14:34:26.765Z,96604.88
2023-04-14T14:36:54.502Z,96603.41
2023-04-14T14:39:26.586Z,96599.88
2023-04-14T14:41:54.085Z,96605.31
2023-04-14T14:44:21.532Z,96606.72
2023-04-14T14:46:49.195Z,96608.66
2023-04-14T14:49:16.652Z,96601.75
2023-04-14T14:51:44.035Z,96618.47
2023-04-14T14:54:11.717Z,96607.81
2023-04-14T14:56:40.838Z,96603.50
2023-04-14T14:59:11.072Z,96600.53
2023-04-14T15:01:38.508Z,96605.19
2023-04-14T15:04:06.517Z,96595.81
2023-04-14T15:06:34.587Z,96599.28
2023-04-14T15:09:02.958Z,96590.63
2023-04-14T15:11:30.610Z,96583.44
2023-04-14T15:13:59.836Z,96594.94
2023-04-14T15:16:27.706Z,96586.88
2023-04-14T15:18:55.445Z,96580.97
2023-04-14T15:21:23.074Z,96584.31
2023-04-14T15:23:50.526Z,96583.75
2023-04-14T15:26:18.421Z,96586.75
2023-04-14T15:28:47.591Z,96587.59
2023-04-14T15:31:16.474Z,96585.13
2023-04-14T15:33:44.504Z,96594.72
2023-04-14T15:36:11.873Z,96588.97
2023-04-14T15:38:40.103Z,96589.63
2023-04-14T15:41:07.344Z,96601.50
2023-04-14T15:43:34.763Z,96587.56
2023-04-14T15:46:02.358Z,96590.53
2023-04-14T15:48:31.250Z,96583.88
2023-04-14T15:50:58.732Z,96586.47
2023-04-14T15:53:26.101Z,96584.00
2023-04-14T15:55:53.445Z,96585.09
2023-04-14T15:58:22.238Z,96589.78
2023-04-14T16:00:52.692Z,96587.34
2023-04-14T16:03:20.297Z,96590.31
2023-04-14T16:05:49.117Z,96585.94
2023-04-14T16:08:17.011Z,96592.81
2023-04-14T16:10:44.443Z,96588.97
2023-04-14T16:13:12.215Z,96592.53
2023-04-14T16:15:39.640Z,96595.28
2023-04-14T16:18:07.074Z,96588.94
2023-04-14T16:20:34.532Z,96590.06
2023-04-14T16:23:03.325Z,96592.69
2023-04-14T16:25:30.674Z,96588.00
2023-04-14T16:27:58.050Z,96589.03
2023-04-14T16:30:25.432Z,96595.72
2023-04-14T16:32:52.900Z,96586.59
2023-04-14T16:35:20.534Z,96596.91
2023-04-14T16:37:47.878Z,96597.69
2023-04-14T16:40:16.758Z,96590.34
2023-04-14T16:42:44.123Z,96598.44
2023-04-14T16:45:11.718Z,96597.69
2023-04-14T16:47:39.122Z,96595.00
2023-04-14T16:50:07.391Z,96596.00
2023-04-14T16:52:35.117Z,96592.72
2023-04-14T16:55:02.585Z,96592.53
2023-04-14T16:57:32.662Z,96593.13
2023-04-14T17:00:00.094Z,96590.41
2023-04-14T17:02:27.621Z,96588.50
2023-04-14T17:04:57.521Z,96584.69
2023-04-14T17:07:25.397Z,96587.91
2023-04-14T17:09:52.866Z,96603.75
2023-04-14T17:12:20.189Z,96597.31
2023-04-14T17:14:48.897Z,96600.00
2023-04-14T17:17:16.654Z,96600.03
2023-04-14T17:19:43.993Z,96597.09
2023-04-14T17:22:12.126Z,96605.66
2023-04-14T17:24:40.072Z,96598.34
2023-04-14T17:27:08.203Z,96608.06
2023-04-14T17:29:35.661Z,96603.16
2023-04-14T17:32:04.861Z,96596.94
2023-04-14T17:34:32.478Z,96603.72
2023-04-14T17:37:00.300Z,96602.44
2023-04-14T17:39:28.241Z,96613.38
2023-04-14T17:41:58.056Z,96609.59
2023-04-14T17:44:31.812Z,96609.19
2023-04-14T17:47:03.178Z,96608.88
2023-04-14T17:49:33.748Z,96609.81
2023-04-14T17:52:15.650Z,96616.44
2023-04-14T17:54:43.926Z,96616.72
2023-04-14T17:57:13.169Z,96614.81
2023-04-14T17:59:41.529Z,96616.69
2023-04-14T18:02:13.651Z,96617.50
2023-04-14T18:04:42.641Z,96613.00
2023-04-14T18:07:10.214Z,96623.59
2023-04-14T18:09:37.670Z,96620.31
2023-04-14T18:12:05.197Z,96623.44
2023-04-14T18:14:32.775Z,96625.81
2023-04-14T18:17:00.344Z,96623.00
2023-04-14T18:19:28.334Z,96634.19
2023-04-14T18:21:57.408Z,96636.16
2023-04-14T18:26:55.090Z,96643.66
2023-04-14T18:29:22.514Z,96638.97
2023-04-14T18:31:49.955Z,96644.34
2023-04-14T18:34:17.620Z,96647.28
2023-04-14T18:36:45.075Z,96655.69
2023-04-14T18:39:16.267Z,96647.66
2023-04-14T18:41:43.942Z,96650.50
2023-04-14T18:44:11.582Z,96648.38
2023-04-14T18:46:39.403Z,96647.91
2023-04-14T18:49:06.830Z,96645.66
2023-04-14T18:51:34.357Z,96642.13
2023-04-14T18:54:02.164Z,96652.50
2023-04-14T18:56:31.526Z,96664.63
2023-04-14T18:59:00.003Z,96662.84
2023-04-14T19:01:28.598Z,96664.94
2023-04-14T19:03:57.627Z,96669.53
2023-04-14T19:06:26.242Z,96672.63
2023-04-14T19:08:53.666Z,96668.13
2023-04-14T19:11:21.589Z,96663.69
2023-04-14T19:13:50.580Z,96670.16
2023-04-14T19:16:18.057Z,96677.78
2023-04-14T19:18:45.465Z,96681.84
2023-04-14T19:21:13.307Z,96679.59
2023-04-14T19:23:40.947Z,96681.88
2023-04-14T19:26:10.336Z,96685.09
2023-04-14T19:28:40.153Z,96687.72
2023-04-14T19:31:09.007Z,96694.44
2023-04-14T19:33:37.759Z,96696.41
2023-04-14T19:36:10.969Z,96689.06
2023-04-14T19:38:39.438Z,96692.28
2023-04-14T19:41:07.587Z,96686.16
2023-04-14T19:43:35.389Z,96689.97
2023-04-14T19:46:04.798Z,96688.16
2023-04-14T19:48:34.204Z,96676.28
2023-04-14T19:51:02.376Z,96681.13
2023-04-14T19:53:30.338Z,96681.06
2023-04-14T19:55:58.591Z,96675.56
2023-04-14T19:58:27.667Z,96682.44
2023-04-14T20:00:57.330Z,96682.91
2023-04-14T20:03:25.679Z,96682.50
2023-04-14T20:05:56.699Z,96690.09
2023-04-14T20:08:25.338Z,96688.63
2023-04-14T20:10:54.190Z,96687.69
2023-04-14T20:13:23.352Z,96683.16
2023-04-14T20:15:53.818Z,96681.94
2023-04-14T20:18:22.575Z,96685.25
2023-04-14T20:20:50.962Z,96680.56
2023-04-14T20:23:19.853Z,96687.00
2023-04-14T20:25:48.726Z,96680.22
2023-04-14T20:28:16.691Z,96685.03
2023-04-14T20:30:45.119Z,96687.16
2023-04-14T20:33:12.532Z,96688.00
2023-04-14T20:35:43.241Z,96694.66
2023-04-14T20:38:15.021Z,96699.63
2023-04-14T20:40:45.097Z,96695.72
2023-04-14T20:43:12.541Z,96688.66
2023-04-14T20:45:40.441Z,96689.50
2023-04-14T20:48:07.954Z,96694.25
2023-04-14T20:50:35.813Z,96685.19
2023-04-14T20:53:03.371Z,96686.22
2023-04-14T20:55:30.891Z,96692.44
2023-04-14T20:57:59.832Z,96696.41
2023-04-14T21:00:27.407Z,96693.09
2023-04-14T21:02:54.908Z,96694.72
2023-04-14T21:05:22.647Z,96692.44
2023-04-14T21:07:50.226Z,96682.50
2023-04-14T21:10:17.726Z,96694.53
2023-04-14T21:15:28.366Z,96688.75
2023-04-14T21:15:52.580Z,96690.16
2023-04-14T21:18:22.270Z,96697.41
2023-04-14T21:20:49.818Z,96694.72
2023-04-14T21:23:17.473Z,96691.81
2023-04-14T21:25:44.965Z,96694.72
2023-04-14T21:28:13.046Z,96689.56
2023-04-14T21:30:42.531Z,96695.97
2023-04-14T21:33:10.767Z,96690.59
2023-04-14T21:35:38.327Z,96701.16
2023-04-14T21:38:05.732Z,96701.34
2023-04-14T21:40:33.741Z,96697.81
2023-04-14T21:43:01.487Z,96694.72
2023-04-14T21:45:28.978Z,96697.59
2023-04-14T21:47:58.697Z,96696.97
2023-04-14T21:50:26.279Z,96694.88
2023-04-14T21:52:53.655Z,96696.97
2023-04-14T21:55:21.026Z,96702.16
2023-04-14T21:57:49.935Z,96694.25
2023-04-14T22:00:18.200Z,96696.72
2023-04-14T22:02:47.078Z,96699.66
2023-04-14T22:05:16.046Z,96697.53
2023-04-14T22:07:43.489Z,96691.34
2023-04-14T22:10:12.146Z,96698.38
2023-04-14T22:12:39.948Z,96704.75
2023-04-14T22:15:08.756Z,96699.78
2023-04-14T22:17:36.545Z,96704.28
2023-04-14T22:20:06.022Z,96699.94
2023-04-14T22:22:35.001Z,96702.00
2023-04-14T22:25:03.418Z,96702.84
2023-04-14T22:27:31.331Z,96699.28
2023-04-14T22:29:58.992Z,96702.59
2023-04-14T22:32:27.158Z,96698.41
2023-04-14T22:34:54.540Z,96694.72
2023-04-14T22:37:22.129Z,96706.50
2023-04-14T22:39:51.369Z,96699.03
2023-04-14T22:42:18.794Z,96706.88
2023-04-14T22:44:47.991Z,96702.09
2023-04-14T22:47:15.554Z,96700.00
2023-04-14T22:49:43.024Z,96701.06
2023-04-14T22:52:10.533Z,96701.25
2023-04-14T22:54:38.060Z,96711.19
2023-04-14T22:57:06.847Z,96695.22
2023-04-14T22:59:34.239Z,96702.69
2023-04-14T23:02:02.231Z,96718.03
2023-04-14T23:04:31.252Z,96709.97
2023-04-14T23:06:58.674Z,96713.69
2023-04-14T23:09:30.207Z,96712.22
2023-04-14T23:11:57.884Z,96710.34
2023-04-14T23:14:26.800Z,96711.19
2023-04-14T23:16:54.031Z,96707.88
2023-04-14T23:19:21.534Z,96713.06
2023-04-14T23:21:48.842Z,96708.72
2023-04-14T23:24:16.510Z,96700.84
2023-04-14T23:26:44.354Z,96703.31
2023-04-14T23:29:11.848Z,96705.56
2023-04-14T23:31:40.676Z,96713.63
2023-04-14T23:34:10.085Z,96702.47
2023-04-14T23:36:37.694Z,96698.09
2023-04-14T23:39:05.653Z,96695.41
2023-04-14T23:41:33.108Z,96687.72
2023-04-14T23:44:00.537Z,96701.59
2023-04-14T23:46:28.370Z,96704.66
2023-04-14T23:48:57.901Z,96698.03
2023-04-14T23:51:27.103Z,96697.56
2023-04-14T23:53:54.697Z,96695.69
2023-04-14T23:56:22.361Z,96705.44
2023-04-14T23:58:49.725Z,96690.28
